createdAt,value
2022-10-01T17:11:28.334Z,12.50
2022-10-01T17:14:21.118Z,12.50
2022-10-01T17:17:07.051Z,12.50
2022-10-01T17:19:52.867Z,12.50
2022-10-01T17:22:39.492Z,12.50
2022-10-01T17:25:32.051Z,12.40
2022-10-01T17:28:20.188Z,12.40
2022-10-01T17:31:07.453Z,12.40
2022-10-01T17:33:53.307Z,12.40
2022-10-01T17:36:39.902Z,12.50
2022-10-01T17:39:25.943Z,12.40
2022-10-01T17:42:12.553Z,12.40
2022-10-01T17:44:59.340Z,12.40
2022-10-01T17:47:47.010Z,12.40
2022-10-01T17:50:33.081Z,12.30
2022-10-01T17:53:18.913Z,12.30
2022-10-01T17:56:14.530Z,12.30
2022-10-01T17:59:00.415Z,12.10
2022-10-01T18:01:46.211Z,12.00
2022-10-01T18:04:32.006Z,11.80
2022-10-01T18:07:18.281Z,11.60
2022-10-01T18:10:10.258Z,11.50
2022-10-01T18:12:57.686Z,11.50
2022-10-01T18:15:43.873Z,11.50
2022-10-01T18:21:36.468Z,11.40
2022-10-01T18:24:21.988Z,11.40
2022-10-01T18:27:07.979Z,11.30
2022-10-01T18:29:53.850Z,11.30
2022-10-01T18:32:48.206Z,11.30
2022-10-01T18:35:34.643Z,11.20
2022-10-01T18:38:27.272Z,11.30
2022-10-01T18:41:32.027Z,11.30
2022-10-01T18:44:20.585Z,11.20
2022-10-01T18:47:26.687Z,11.10
2022-10-01T18:50:35.684Z,11.00
2022-10-01T18:53:32.583Z,11.00
2022-10-01T18:56:35.602Z,11.00
2022-10-01T18:59:46.405Z,11.00
2022-10-01T19:02:53.738Z,11.00
2022-10-01T19:06:10.503Z,11.00
2022-10-01T19:09:21.567Z,11.00
2022-10-01T19:12:28.300Z,10.90
2022-10-01T19:15:33.959Z,10.90
2022-10-01T19:18:56.749Z,10.80
2022-10-01T19:21:58.517Z,10.70
2022-10-01T19:24:57.930Z,10.70
2022-10-01T19:27:49.335Z,10.70
2022-10-01T19:30:59.346Z,10.60
2022-10-01T19:33:50.462Z,10.50
2022-10-01T19:36:40.927Z,10.40
2022-10-01T19:39:31.162Z,10.40
2022-10-01T19:42:29.878Z,10.30
2022-10-01T19:45:28.878Z,10.30
2022-10-01T19:48:36.431Z,10.20
2022-10-01T19:51:29.203Z,10.20
2022-10-01T19:54:19.450Z,10.10
2022-10-01T19:57:26.326Z,10.10
2022-10-01T20:00:22.940Z,10.10
2022-10-01T20:03:39.421Z,10.00
2022-10-01T20:06:41.415Z,10.00
2022-10-01T20:09:32.789Z,10.00
2022-10-01T20:12:43.442Z,10.10
2022-10-01T20:15:55.637Z,10.10
2022-10-01T20:18:47.861Z,10.10
2022-10-01T20:21:59.634Z,10.10
2022-10-01T20:25:00.352Z,10.10
2022-10-01T20:28:06.562Z,10.10
2022-10-01T20:31:04.080Z,10.10
2022-10-01T20:34:00.334Z,10.10
2022-10-01T20:37:11.361Z,10.10
2022-10-01T20:40:05.389Z,10.10
2022-10-01T20:43:12.243Z,10.10
2022-10-01T20:46:04.562Z,10.10
2022-10-01T20:48:58.627Z,10.10
2022-10-01T20:52:17.650Z,10.20
2022-10-01T20:55:26.666Z,10.20
2022-10-01T20:58:18.441Z,10.20
2022-10-01T21:01:12.789Z,10.20
2022-10-01T21:04:06.349Z,10.20
2022-10-01T21:07:02.011Z,10.30
2022-10-01T21:09:50.866Z,10.20
2022-10-01T21:12:41.206Z,10.30
2022-10-01T21:15:35.077Z,10.30
2022-10-01T21:18:27.858Z,10.20
2022-10-01T21:21:27.236Z,10.30
2022-10-01T21:24:44.171Z,10.20
2022-10-01T21:27:29.779Z,10.20
2022-10-01T21:30:22.415Z,10.20
2022-10-01T21:33:33.859Z,10.20
2022-10-01T21:36:55.519Z,10.30
2022-10-01T21:40:04.005Z,10.20
2022-10-01T21:43:05.519Z,10.20
2022-10-01T21:46:19.641Z,10.20
2022-10-01T21:49:28.445Z,10.20
2022-10-01T21:52:44.571Z,10.20
2022-10-01T21:55:45.908Z,10.20
2022-10-01T21:59:07.411Z,10.20
2022-10-01T22:02:19.315Z,10.20
2022-10-01T22:05:34.008Z,10.20
2022-10-01T22:08:32.652Z,10.20
2022-10-01T22:11:26.163Z,10.20
2022-10-01T22:14:17.777Z,10.20
2022-10-01T22:17:16.057Z,10.20
2022-10-01T22:20:05.113Z,10.20
2022-10-01T22:22:55.483Z,10.20
2022-10-01T22:25:48.643Z,10.20
2022-10-01T22:28:40.902Z,10.20
2022-10-01T22:31:32.858Z,10.20
2022-10-01T22:34:23.845Z,10.20
2022-10-01T22:37:51.398Z,10.20
2022-10-01T22:40:46.292Z,10.20
2022-10-01T22:43:32.151Z,10.20
2022-10-01T22:46:49.869Z,10.20
2022-10-01T22:49:40.638Z,10.20
2022-10-01T22:53:14.643Z,10.20
2022-10-01T22:56:00.332Z,10.20
2022-10-01T22:59:29.928Z,10.20
2022-10-01T23:02:25.680Z,10.20
2022-10-01T23:05:36.783Z,10.20
2022-10-01T23:08:39.655Z,10.20
2022-10-01T23:12:00.936Z,10.20
2022-10-01T23:15:19.382Z,10.20
2022-10-01T23:18:23.712Z,10.20
2022-10-01T23:21:44.919Z,10.30
2022-10-01T23:24:52.529Z,10.30
2022-10-01T23:27:56.435Z,10.30
2022-10-01T23:31:19.990Z,10.40
2022-10-01T23:34:24.677Z,10.40
2022-10-01T23:37:29.352Z,10.40
2022-10-01T23:40:20.713Z,10.40
2022-10-01T23:43:15.474Z,10.50
2022-10-01T23:46:23.032Z,10.50
2022-10-01T23:49:15.595Z,10.60
2022-10-01T23:52:22.127Z,10.60
2022-10-01T23:55:49.177Z,10.60
2022-10-01T23:58:50.801Z,10.60
